Surface Data

82.0 °F / 27.8 °C
NE at 14 MPH
85%
77.4°F / 25.2 °C
29.81" (1009 mb)
10 mile(s)
partly cloudy
2019.10.23 1820 UTC

Surface Data

Raw METARs

2019/10/23 18:20
PKWA 231820Z AUTO 04012KT 10SM SCT024 SCT033 SCT048 28/25 A2981 RMK AO2 LTG DSNT SW T02780252

Translated METAR

Kwajalein, Bucholz AAF, Kwajalein KMR ATOL Airport, Marshall Islands (PKWA) 08-43N 167-44E 2M
Oct 23, 2019 - 02:20 PM EDT / 2019.10.23 1820 UTC
Wind: from the NE (040 degrees) at 14 MPH (12 KT):0
Visibility: 10 mile(s):0
Sky conditions: partly cloudy
Weather: Lightning observed
Temperature: 82.0 F (27.8 C)
Dew Point: 77.4 F (25.2 C)
Relative Humidity: 85%
Pressure (altimeter): 29.81 in. Hg (1009 hPa)
ob: PKWA 231820Z AUTO 04012KT 10SM SCT024 SCT033 SCT048 28/25 A2981 RMK AO2 LTG DSNT SW T02780252
cycle: 18